OOCL Kaohsiung — 9V9830 — position and weather

sailwx.info

Track history (hours):
 
Tides and Currents Weather Stations Pressure Air Temp Water Temp Dewpoint Dewpoint Depression Visibility Wind Speed Wind Dir Waves Ship Positions

OOCL Kaohsiung

Last reported at 2015-Apr-20 07:26 UTC. Time now 2015-Apr-21 05:05 UTC.
Position N 31°20' E 032°22'.

Length 280 m; draft 13.2 m.

Type: Cargo ship. MMSI: 566389000.

Date/timePositionNaut miles runAvg speedWind from/ knotsBaromVisibWave heightAir tempDewpointWater temp
2015-Apr-20 07:26N 31°20' E 032°22'7 7.5
2015-Apr-20 06:33N 31°26' E 032°21'2 1.8
2015-Apr-20 05:32N 31°28' E 032°20'0 0.0
2015-Apr-20 02:32N 31°28' E 032°20'0 0.0
2015-Apr-20 01:32N 31°28' E 032°20'0 0.0
2015-Apr-20 00:32N 31°28' E 032°20'0 0.0
2015-Apr-19 23:32N 31°28' E 032°20'0 0.0
2015-Apr-19 22:32N 31°28' E 032°20'0 0.0
2015-Apr-19 21:32N 31°28' E 032°20'0 0.0
2015-Apr-19 19:29N 31°28' E 032°20'0 0.0
2015-Apr-19 18:32N 31°28' E 032°20'0 0.0
2015-Apr-19 17:32N 31°28' E 032°20'0 0.0
2015-Apr-19 16:32N 31°28' E 032°20'0 0.1
2015-Apr-19 15:32N 31°28' E 032°20'0 0.0
2015-Apr-19 14:32N 31°28' E 032°20'0 0.1
2015-Apr-19 13:32N 31°28' E 032°20'0 0.1
2015-Apr-19 12:32N 31°28' E 032°20'0 0.0
2015-Apr-19 11:32N 31°28' E 032°20'0 0.0
2015-Apr-19 10:32N 31°28' E 032°20'0 0.0
2015-Apr-19 09:32N 31°28' E 032°20'0 0.0
2015-Apr-19 08:32N 31°28' E 032°20'0 0.1
2015-Apr-19 06:24N 31°28' E 032°20'5 5.7
2015-Apr-19 05:28N 31°30' E 032°14'1415.3
2015-Apr-19 04:33N 31°38' E 032°01'16 3.8
2015-Apr-19 00:11N 31°28' E 031°46'0 0.0
2015-Apr-18 23:32N 31°28' E 031°46'0 0.0
2015-Apr-18 18:17N 31°28' E 031°46'0 0.0
2015-Apr-18 17:29N 31°28' E 031°46'0 0.1
2015-Apr-18 14:06N 31°28' E 031°46'18 6.9
2015-Apr-18 11:33N 31°45' E 031°42'14617.5
2015-Apr-18 03:13N 32°37' E 029°01'6417.4
2015-Apr-17 23:33N 32°57' E 027°49'2218.0
2015-Apr-17 22:22N 33°03' E 027°24'1619.5
2015-Apr-17 21:33N 33°08' E 027°06'2019.7
2015-Apr-17 20:33N 33°14' E 026°44'6618.8
2015-Apr-17 17:03N 33°34' E 025°28'918.2
2015-Apr-17 16:33N 33°36' E 025°18'39018.3
2015-Apr-16 19:15N 35°33' E 017°46'1319.0
2015-Apr-16 18:33N 35°38' E 017°31'1918.7
2015-Apr-16 17:34N 35°43' E 017°09'1918.9
2015-Apr-16 16:33N 35°49' E 016°47'7618.9
2015-Apr-16 12:32N 36°13' E 015°18'1818.8
2015-Apr-16 11:33N 36°18' E 014°56'1918.7
2015-Apr-16 10:34N 36°24' E 014°34'1919.2
2015-Apr-16 09:33N 36°33' E 014°13'2019.8
2015-Apr-16 08:33N 36°43' E 013°52'2121.0
2015-Apr-16 07:33N 36°54' E 013°30'2020.3
2015-Apr-16 06:33N 37°05' E 013°08'3919.3
2015-Apr-16 04:34N 37°25' E 012°26'2019.4
2015-Apr-16 03:32N 37°37' E 012°06'2119.8
2015-Apr-16 02:28N 37°49' E 011°45'1920.4
2015-Apr-16 01:34N 37°59' E 011°25'2120.6
2015-Apr-16 00:33N 38°10' E 011°02'6519.8
2015-Apr-15 21:17N 38°44' E 009°52'1819.8
2015-Apr-15 20:23N 38°53' E 009°32'1619.7
2015-Apr-15 19:33N 39°02' E 009°15'1212.4
2015-Apr-15 18:33N 39°12' E 009°05'1 1.0
2015-Apr-15 17:29N 39°13' E 009°05'0 0.0
2015-Apr-15 16:23N 39°13' E 009°05'0 0.0
2015-Apr-15 15:29N 39°13' E 009°05'0 0.0
2015-Apr-15 14:29N 39°13' E 009°05'0 0.0
2015-Apr-15 13:32N 39°13' E 009°05'0 0.0
2015-Apr-15 12:32N 39°13' E 009°05'0 0.0
2015-Apr-15 11:32N 39°13' E 009°05'0 0.0
2015-Apr-15 10:32N 39°13' E 009°05'0 0.0
2015-Apr-15 09:26N 39°13' E 009°05'0 0.0
2015-Apr-15 08:26N 39°13' E 009°05'0 0.0
2015-Apr-15 07:32N 39°13' E 009°05'0 0.0
2015-Apr-15 06:26N 39°13' E 009°05'0 0.0
2015-Apr-15 05:29N 39°13' E 009°05'0 0.0
2015-Apr-15 04:29N 39°13' E 009°05'6 6.0
2015-Apr-15 03:33N 39°07' E 009°06'10 9.7
2015-Apr-15 02:32N 38°57' E 009°04'2118.3
2015-Apr-15 01:25N 38°46' E 008°42'5217.5
2015-Apr-14 22:26N 38°33' E 007°37'1616.2
2015-Apr-14 21:28N 38°31' E 007°17'5417.0
2015-Apr-14 18:17N 38°20' E 006°10'1316.8
2015-Apr-14 17:30N 38°17' E 005°53'1616.8
2015-Apr-14 16:34N 38°15' E 005°33'1716.3
2015-Apr-14 15:32N 38°12' E 005°12'1616.4
2015-Apr-14 14:33N 38°09' E 004°52'6 5.8
2015-Apr-14 13:33N 38°08' E 004°45'2 2.0
2015-Apr-14 12:33N 38°06' E 004°46'12 1.8
2015-Apr-14 06:07N 37°56' E 004°53'1 1.1
2015-Apr-14 05:33N 37°55' E 004°53'2 2.2
2015-Apr-14 04:33N 37°55' E 004°51'1514.9
2015-Apr-14 03:33N 37°50' E 004°32'1515.5
2015-Apr-14 02:33N 37°46' E 004°14'1615.6
2015-Apr-14 01:33N 37°42' E 003°55'1615.8
2015-Apr-14 00:33N 37°37' E 003°36'1615.6
2015-Apr-13 23:33N 37°32' E 003°17'1515.4
2015-Apr-13 22:33N 37°27' E 002°59'1615.5
2015-Apr-13 21:33N 37°22' E 002°40'1515.4
2015-Apr-13 20:34N 37°17' E 002°22'1615.5
2015-Apr-13 19:33N 37°15' E 002°03'1514.9
2015-Apr-13 18:33N 37°12' E 001°44'1514.9
2015-Apr-13 17:33N 37°08' E 001°26'1515.5
2015-Apr-13 16:33N 37°04' E 001°07'1615.8
2015-Apr-13 15:34N 37°01' E 000°48'1616.1
2015-Apr-13 14:33N 36°57' E 000°29'1515.3
2015-Apr-13 13:33N 36°53' E 000°10'1515.3
2015-Apr-13 12:33N 36°49' W 000°08'1615.6
2015-Apr-13 11:33N 36°45' W 000°27'1515.5
2015-Apr-13 10:33N 36°41' W 000°46'2015.5
2015-Apr-13 09:15N 36°35' W 001°10'1715.0
2015-Apr-13 08:07N 36°31' W 001°31'814.5
2015-Apr-13 07:34N 36°29' W 001°40'17215.1
2015-Apr-12 20:10N 36°01' W 005°11'1118.8
2015-Apr-12 19:34N 35°59' W 005°25'25415.4
2015-Apr-12 03:03N 36°40' W 010°36'916.2
2015-Apr-12 02:30N 36°43' W 010°47'1516.1
2015-Apr-12 01:34N 36°47' W 011°05'2215.9
2015-Apr-12 00:10N 36°53' W 011°32'66616.4
2015-Apr-10 07:31N 39°22' W 025°17'  
Track history (hours):
 
Tides and Currents Weather Stations Pressure Air Temp Water Temp Dewpoint Dewpoint Depression Visibility Wind Speed Wind Dir Waves Ship Positions

OOCL Kaohsiung

Last reported at 2015-Apr-20 07:26 UTC. Time now 2015-Apr-21 05:05 UTC.
Position N 31°20' E 032°22'.

Length 280 m; draft 13.2 m.

Type: Cargo ship. MMSI: 566389000.

Date/timePositionNaut miles runAvg speedWind from/ knotsBaromVisibWave heightAir tempDewpointWater temp
2015-Apr-20 07:26N 31°20' E 032°22'7 7.5
2015-Apr-20 06:33N 31°26' E 032°21'2 1.8
2015-Apr-20 05:32N 31°28' E 032°20'0 0.0
2015-Apr-20 02:32N 31°28' E 032°20'0 0.0
2015-Apr-20 01:32N 31°28' E 032°20'0 0.0
2015-Apr-20 00:32N 31°28' E 032°20'0 0.0
2015-Apr-19 23:32N 31°28' E 032°20'0 0.0
2015-Apr-19 22:32N 31°28' E 032°20'0 0.0
2015-Apr-19 21:32N 31°28' E 032°20'0 0.0
2015-Apr-19 19:29N 31°28' E 032°20'0 0.0
2015-Apr-19 18:32N 31°28' E 032°20'0 0.0
2015-Apr-19 17:32N 31°28' E 032°20'0 0.0
2015-Apr-19 16:32N 31°28' E 032°20'0 0.1
2015-Apr-19 15:32N 31°28' E 032°20'0 0.0
2015-Apr-19 14:32N 31°28' E 032°20'0 0.1
2015-Apr-19 13:32N 31°28' E 032°20'0 0.1
2015-Apr-19 12:32N 31°28' E 032°20'0 0.0
2015-Apr-19 11:32N 31°28' E 032°20'0 0.0
2015-Apr-19 10:32N 31°28' E 032°20'0 0.0
2015-Apr-19 09:32N 31°28' E 032°20'0 0.0
2015-Apr-19 08:32N 31°28' E 032°20'0 0.1
2015-Apr-19 06:24N 31°28' E 032°20'5 5.7
2015-Apr-19 05:28N 31°30' E 032°14'1415.3
2015-Apr-19 04:33N 31°38' E 032°01'16 3.8
2015-Apr-19 00:11N 31°28' E 031°46'0 0.0
2015-Apr-18 23:32N 31°28' E 031°46'0 0.0
2015-Apr-18 18:17N 31°28' E 031°46'0 0.0
2015-Apr-18 17:29N 31°28' E 031°46'0 0.1
2015-Apr-18 14:06N 31°28' E 031°46'18 6.9
2015-Apr-18 11:33N 31°45' E 031°42'14617.5
2015-Apr-18 03:13N 32°37' E 029°01'6417.4
2015-Apr-17 23:33N 32°57' E 027°49'2218.0
2015-Apr-17 22:22N 33°03' E 027°24'1619.5
2015-Apr-17 21:33N 33°08' E 027°06'2019.7
2015-Apr-17 20:33N 33°14' E 026°44'6618.8
2015-Apr-17 17:03N 33°34' E 025°28'918.2
2015-Apr-17 16:33N 33°36' E 025°18'39018.3
2015-Apr-16 19:15N 35°33' E 017°46'1319.0
2015-Apr-16 18:33N 35°38' E 017°31'1918.7
2015-Apr-16 17:34N 35°43' E 017°09'1918.9
2015-Apr-16 16:33N 35°49' E 016°47'7618.9
2015-Apr-16 12:32N 36°13' E 015°18'1818.8
2015-Apr-16 11:33N 36°18' E 014°56'1918.7
2015-Apr-16 10:34N 36°24' E 014°34'1919.2
2015-Apr-16 09:33N 36°33' E 014°13'2019.8
2015-Apr-16 08:33N 36°43' E 013°52'2121.0
2015-Apr-16 07:33N 36°54' E 013°30'2020.3
2015-Apr-16 06:33N 37°05' E 013°08'3919.3
2015-Apr-16 04:34N 37°25' E 012°26'2019.4
2015-Apr-16 03:32N 37°37' E 012°06'2119.8
2015-Apr-16 02:28N 37°49' E 011°45'1920.4
2015-Apr-16 01:34N 37°59' E 011°25'2120.6
2015-Apr-16 00:33N 38°10' E 011°02'6519.8
2015-Apr-15 21:17N 38°44' E 009°52'1819.8
2015-Apr-15 20:23N 38°53' E 009°32'1619.7
2015-Apr-15 19:33N 39°02' E 009°15'1212.4
2015-Apr-15 18:33N 39°12' E 009°05'1 1.0
2015-Apr-15 17:29N 39°13' E 009°05'0 0.0
2015-Apr-15 16:23N 39°13' E 009°05'0 0.0
2015-Apr-15 15:29N 39°13' E 009°05'0 0.0
2015-Apr-15 14:29N 39°13' E 009°05'0 0.0
2015-Apr-15 13:32N 39°13' E 009°05'0 0.0
2015-Apr-15 12:32N 39°13' E 009°05'0 0.0
2015-Apr-15 11:32N 39°13' E 009°05'0 0.0
2015-Apr-15 10:32N 39°13' E 009°05'0 0.0
2015-Apr-15 09:26N 39°13' E 009°05'0 0.0
2015-Apr-15 08:26N 39°13' E 009°05'0 0.0
2015-Apr-15 07:32N 39°13' E 009°05'0 0.0
2015-Apr-15 06:26N 39°13' E 009°05'0 0.0
2015-Apr-15 05:29N 39°13' E 009°05'0 0.0
2015-Apr-15 04:29N 39°13' E 009°05'6 6.0
2015-Apr-15 03:33N 39°07' E 009°06'10 9.7
2015-Apr-15 02:32N 38°57' E 009°04'2118.3
2015-Apr-15 01:25N 38°46' E 008°42'5217.5
2015-Apr-14 22:26N 38°33' E 007°37'1616.2
2015-Apr-14 21:28N 38°31' E 007°17'5417.0
2015-Apr-14 18:17N 38°20' E 006°10'1316.8
2015-Apr-14 17:30N 38°17' E 005°53'1616.8
2015-Apr-14 16:34N 38°15' E 005°33'1716.3
2015-Apr-14 15:32N 38°12' E 005°12'1616.4
2015-Apr-14 14:33N 38°09' E 004°52'6 5.8
2015-Apr-14 13:33N 38°08' E 004°45'2 2.0
2015-Apr-14 12:33N 38°06' E 004°46'12 1.8
2015-Apr-14 06:07N 37°56' E 004°53'1 1.1
2015-Apr-14 05:33N 37°55' E 004°53'2 2.2
2015-Apr-14 04:33N 37°55' E 004°51'1514.9
2015-Apr-14 03:33N 37°50' E 004°32'1515.5
2015-Apr-14 02:33N 37°46' E 004°14'1615.6
2015-Apr-14 01:33N 37°42' E 003°55'1615.8
2015-Apr-14 00:33N 37°37' E 003°36'1615.6
2015-Apr-13 23:33N 37°32' E 003°17'1515.4
2015-Apr-13 22:33N 37°27' E 002°59'1615.5
2015-Apr-13 21:33N 37°22' E 002°40'1515.4
2015-Apr-13 20:34N 37°17' E 002°22'1615.5
2015-Apr-13 19:33N 37°15' E 002°03'1514.9
2015-Apr-13 18:33N 37°12' E 001°44'1514.9
2015-Apr-13 17:33N 37°08' E 001°26'1515.5
2015-Apr-13 16:33N 37°04' E 001°07'1615.8
2015-Apr-13 15:34N 37°01' E 000°48'1616.1
2015-Apr-13 14:33N 36°57' E 000°29'1515.3
2015-Apr-13 13:33N 36°53' E 000°10'1515.3
2015-Apr-13 12:33N 36°49' W 000°08'1615.6
2015-Apr-13 11:33N 36°45' W 000°27'1515.5
2015-Apr-13 10:33N 36°41' W 000°46'2015.5
2015-Apr-13 09:15N 36°35' W 001°10'1715.0
2015-Apr-13 08:07N 36°31' W 001°31'814.5
2015-Apr-13 07:34N 36°29' W 001°40'17215.1
2015-Apr-12 20:10N 36°01' W 005°11'1118.8
2015-Apr-12 19:34N 35°59' W 005°25'25415.4
2015-Apr-12 03:03N 36°40' W 010°36'916.2
2015-Apr-12 02:30N 36°43' W 010°47'1516.1
2015-Apr-12 01:34N 36°47' W 011°05'2215.9
2015-Apr-12 00:10N 36°53' W 011°32'66616.4
2015-Apr-10 07:31N 39°22' W 025°17'  

Dump ship's entire track history